createdAt,value
2022-11-18T00:00:54.853Z,0
2022-11-18T00:07:14.792Z,0
2022-11-18T00:13:37.798Z,0
2022-11-18T00:19:57.770Z,0
2022-11-18T00:26:20.867Z,0
2022-11-18T00:32:40.779Z,0
2022-11-18T00:39:03.808Z,0
2022-11-18T00:45:23.769Z,0
2022-11-18T00:51:46.798Z,0
2022-11-18T00:58:06.774Z,0
2022-11-18T01:04:29.788Z,0
2022-11-18T01:10:49.803Z,0
2022-11-18T01:17:12.790Z,0
2022-11-18T01:23:32.797Z,0
2022-11-18T01:29:55.719Z,0
2022-11-18T01:36:15.872Z,0
2022-11-18T01:42:38.747Z,0
2022-11-18T01:48:58.812Z,0
2022-11-18T01:55:21.756Z,0
2022-11-18T02:01:41.832Z,0
2022-11-18T02:08:04.720Z,0
2022-11-18T02:14:24.832Z,0
2022-11-18T02:20:47.717Z,0
2022-11-18T02:27:07.793Z,0
2022-11-18T02:33:30.774Z,0
2022-11-18T02:39:50.734Z,0
2022-11-18T02:46:13.841Z,0
2022-11-18T02:52:33.801Z,0
2022-11-18T02:58:56.852Z,0
2022-11-18T03:05:16.725Z,0
2022-11-18T03:11:39.826Z,0
2022-11-18T03:17:59.742Z,0
2022-11-18T03:24:22.813Z,0
2022-11-18T03:30:42.814Z,0
2022-11-18T03:37:10.129Z,0
2022-11-18T03:43:25.744Z,0
2022-11-18T03:49:48.851Z,0
2022-11-18T03:56:11.599Z,0
2022-11-18T04:02:31.764Z,0
2022-11-18T04:08:51.835Z,0
2022-11-18T04:15:14.720Z,0
2022-11-18T04:21:34.826Z,0
2022-11-18T04:44:22.781Z,0
2022-11-18T04:50:45.719Z,0
2022-11-18T04:57:05.779Z,0
2022-11-18T05:03:28.791Z,0
2022-11-18T05:09:48.835Z,0
2022-11-18T05:16:11.815Z,0
2022-11-18T05:22:31.821Z,0
2022-11-18T05:28:54.815Z,0
2022-11-18T05:35:14.734Z,0
2022-11-18T05:41:37.862Z,0
2022-11-18T05:47:57.741Z,0
2022-11-18T05:54:20.766Z,0
2022-11-18T06:00:40.821Z,0
2022-11-18T06:07:03.798Z,0
2022-11-18T06:13:23.800Z,0
2022-11-18T06:19:46.925Z,0
2022-11-18T06:26:06.754Z,0
2022-11-18T06:32:29.790Z,0
2022-11-18T06:38:49.785Z,0
2022-11-18T06:45:12.790Z,0
2022-11-18T06:51:32.767Z,0
2022-11-18T06:57:55.833Z,0
2022-11-18T07:04:15.793Z,0
2022-11-18T07:10:38.745Z,0
2022-11-18T07:16:58.824Z,0
2022-11-18T07:23:21.805Z,0
2022-11-18T07:29:41.835Z,0
2022-11-18T07:36:04.828Z,0
2022-11-18T07:42:24.745Z,5.62
2022-11-18T07:48:47.831Z,11.25
2022-11-18T07:55:07.785Z,11.25
2022-11-18T08:01:30.993Z,11.25
2022-11-18T08:07:50.812Z,5.62
2022-11-18T08:14:13.779Z,5.62
2022-11-18T08:20:33.760Z,5.62
2022-11-18T08:26:56.794Z,5.62
2022-11-18T08:33:16.810Z,11.25
2022-11-18T08:39:39.801Z,5.62
2022-11-18T08:45:59.755Z,11.25
2022-11-18T08:52:22.860Z,11.25
2022-11-18T08:58:42.754Z,22.5
2022-11-18T09:05:05.751Z,22.5
2022-11-18T09:11:25.899Z,28.12
2022-11-18T09:17:48.761Z,28.12
2022-11-18T09:24:08.747Z,28.12
2022-11-18T09:30:31.878Z,28.12
2022-11-18T09:36:51.742Z,45
2022-11-18T09:59:56.804Z,56.25
2022-11-18T10:06:23.479Z,61.88
2022-11-18T10:12:39.766Z,45
2022-11-18T10:19:02.762Z,33.75
2022-11-18T10:25:22.761Z,56.25
2022-11-18T10:31:45.789Z,61.88
2022-11-18T10:38:08.411Z,33.75
2022-11-18T10:44:28.787Z,78.75
2022-11-18T10:50:53.728Z,95.62
2022-11-18T10:57:11.767Z,50.62
2022-11-18T11:03:31.784Z,45
2022-11-18T11:09:54.757Z,39.38
2022-11-18T11:16:14.821Z,78.75
2022-11-18T11:22:37.751Z,56.25
2022-11-18T11:28:57.757Z,28.12
2022-11-18T11:35:20.819Z,28.12
2022-11-18T11:41:40.738Z,50.62
2022-11-18T11:48:03.803Z,33.75
2022-11-18T11:54:23.876Z,45
2022-11-18T12:00:46.790Z,33.75
2022-11-18T12:07:06.805Z,95.62
2022-11-18T12:13:29.777Z,73.12
2022-11-18T12:19:49.772Z,95.62
2022-11-18T12:26:12.732Z,84.38
2022-11-18T12:32:32.822Z,73.12
2022-11-18T12:38:55.786Z,78.75
2022-11-18T12:45:15.731Z,106.88
2022-11-18T12:51:38.852Z,78.75
2022-11-18T12:57:58.749Z,67.5
2022-11-18T13:04:21.767Z,56.25
2022-11-18T13:10:41.797Z,67.5
2022-11-18T13:17:04.747Z,39.38
2022-11-18T13:23:24.791Z,28.12
2022-11-18T13:29:52.743Z,22.5
2022-11-18T13:36:07.743Z,5.62
2022-11-18T13:42:30.759Z,5.62
2022-11-18T13:48:50.786Z,16.88
2022-11-18T13:55:13.776Z,22.5
2022-11-18T14:01:33.765Z,16.88
2022-11-18T14:07:56.778Z,22.5
2022-11-18T14:14:16.939Z,11.25
2022-11-18T14:20:39.747Z,11.25
2022-11-18T14:26:59.858Z,22.5
2022-11-18T14:33:22.892Z,22.5
2022-11-18T14:39:42.880Z,22.5
2022-11-18T14:46:05.974Z,16.88
2022-11-18T14:52:25.784Z,11.25
2022-11-18T14:58:48.787Z,5.62
2022-11-18T15:05:08.782Z,5.62
2022-11-18T15:21:36.703Z,0
2022-11-18T15:27:56.785Z,0
2022-11-18T15:34:19.973Z,0
2022-11-18T15:40:39.787Z,0
2022-11-18T15:47:02.994Z,0
2022-11-18T15:53:22.963Z,0
2022-11-18T15:59:45.954Z,0
2022-11-18T16:06:06.097Z,0
2022-11-18T16:12:28.794Z,0
2022-11-18T16:18:48.784Z,0
2022-11-18T16:25:11.794Z,0
2022-11-18T16:31:31.836Z,0
2022-11-18T16:37:54.877Z,0
2022-11-18T16:44:14.818Z,0
2022-11-18T16:50:37.808Z,0
2022-11-18T16:56:57.864Z,0
2022-11-18T17:03:20.827Z,0
2022-11-18T17:09:40.800Z,0
2022-11-18T17:16:03.766Z,0
2022-11-18T17:22:23.784Z,0
2022-11-18T17:28:46.816Z,0
2022-11-18T17:35:06.832Z,0
2022-11-18T17:41:29.818Z,0
2022-11-18T17:47:49.785Z,0
2022-11-18T17:54:12.840Z,0
2022-11-18T18:00:32.743Z,0
2022-11-18T18:06:55.848Z,0
2022-11-18T18:13:15.797Z,0
2022-11-18T18:19:38.769Z,0
2022-11-18T18:25:58.784Z,0
2022-11-18T18:32:21.849Z,0
2022-11-18T18:38:41.769Z,0
2022-11-18T18:45:04.793Z,0
2022-11-18T18:51:24.819Z,0
2022-11-18T18:57:47.747Z,0
2022-11-18T19:04:07.805Z,0
2022-11-18T19:10:30.828Z,0
2022-11-18T19:16:50.761Z,0
2022-11-18T19:23:13.863Z,0
2022-11-18T19:29:33.834Z,0
2022-11-18T19:35:56.794Z,0
2022-11-18T19:42:17.046Z,0
2022-11-18T19:48:40.101Z,0
2022-11-18T19:54:59.748Z,0
2022-11-18T20:01:22.901Z,0
2022-11-18T20:07:42.765Z,0
2022-11-18T20:23:35.748Z,0
2022-11-18T20:29:55.718Z,0
2022-11-18T20:36:18.802Z,0
2022-11-18T20:42:38.813Z,0
2022-11-18T20:49:01.795Z,0
2022-11-18T20:55:21.825Z,0
2022-11-18T21:01:44.849Z,0
2022-11-18T21:08:04.737Z,0
2022-11-18T21:14:27.818Z,0
2022-11-18T21:20:47.770Z,0
2022-11-18T21:27:10.829Z,0
2022-11-18T21:33:31.067Z,0
2022-11-18T21:39:53.787Z,0
2022-11-18T21:46:13.781Z,0
2022-11-18T21:52:36.761Z,0
2022-11-18T21:58:56.788Z,0
2022-11-18T22:05:19.765Z,0
2022-11-18T22:11:39.749Z,0
2022-11-18T22:18:02.783Z,0
2022-11-18T22:24:22.767Z,0
2022-11-18T22:30:45.776Z,0
2022-11-18T22:37:05.800Z,0
2022-11-18T22:43:28.781Z,0
2022-11-18T22:49:52.117Z,0
2022-11-18T22:56:11.761Z,0
2022-11-18T23:20:26.750Z,0
2022-11-18T23:26:46.770Z,0
2022-11-18T23:33:09.740Z,0
2022-11-18T23:39:29.801Z,0
2022-11-18T23:45:52.795Z,0
2022-11-18T23:52:12.740Z,0
2022-11-18T23:58:35.836Z,0
